Time;durP1;ratioP1;P1;durP2;ratioP2;P2;SDS_P1;SDS_P2;PMS_P1;PMS_P2;Temp;Humidity;BMP_temperature;BMP_pressure;BME280_temperature;BME280_humidity;BME280_pressure;Samples;Min_cycle;Max_cycle;Signal;HPM_P1;HPM_P2
2022/09/03 00:01:23;;;;;;;12.17;3.67;;;;;;;10.26;74.56;100484.66;4213509;28;20869;-66
2022/09/03 00:03:55;;;;;;;11.70;3.17;;;;;;;10.15;75.53;100480.31;4206743;28;20224;-70
2022/09/03 00:06:30;;;;;;;10.97;3.53;;;;;;;10.14;76.06;100483.13;4187539;28;20250;-69
2022/09/03 00:09:08;;;;;;;9.83;3.57;;;;;;;10.10;75.50;100479.91;4197018;28;20247;-66
2022/09/03 00:11:39;;;;;;;7.53;2.73;;;;;;;10.09;75.12;100480.91;4192129;28;20337;-66
2022/09/03 00:14:11;;;;;;;8.90;3.27;;;;;;;10.15;75.03;100485.63;4211194;28;20240;-66
2022/09/03 00:16:47;;;;;;;7.13;3.10;;;;;;;10.28;74.38;100492.50;4206789;28;20278;-69
2022/09/03 00:19:17;;;;;;;5.67;2.93;;;;;;;10.29;74.47;100489.72;4207250;28;20239;-66
2022/09/03 00:21:50;;;;;;;9.53;3.03;;;;;;;10.18;74.38;100481.84;4211712;28;20517;-68
2022/09/03 00:24:19;;;;;;;7.43;3.20;;;;;;;10.10;74.90;100479.91;4206895;28;20236;-67
2022/09/03 00:26:55;;;;;;;15.13;3.67;;;;;;;10.12;75.05;100477.94;4185079;28;20259;-67
2022/09/03 00:29:35;;;;;;;7.87;3.30;;;;;;;10.13;75.35;100479.63;4210968;28;20241;-66
2022/09/03 00:32:09;;;;;;;10.27;2.73;;;;;;;10.10;74.31;100466.63;4200376;28;26366;-67
2022/09/03 00:34:40;;;;;;;5.10;2.47;;;;;;;10.05;74.54;100468.84;4213418;28;20581;-68
2022/09/03 00:37:09;;;;;;;12.27;3.40;;;;;;;10.07;74.50;100472.22;4215613;28;21147;-66
2022/09/03 00:39:40;;;;;;;8.63;2.70;;;;;;;10.09;74.41;100478.25;4177705;28;20308;-66
2022/09/03 00:42:37;;;;;;;5.57;2.67;;;;;;;10.07;74.41;100474.88;4208164;28;20287;-66
2022/09/03 00:45:30;;;;;;;7.00;3.00;;;;;;;9.92;74.99;100471.78;4213543;28;20235;-68
2022/09/03 00:48:12;;;;;;;6.00;2.57;;;;;;;10.00;74.53;100472.94;4198742;28;20233;-68
2022/09/03 00:51:00;;;;;;;6.27;2.77;;;;;;;9.98;74.54;100481.03;4206871;28;20232;-68
2022/09/03 00:53:34;;;;;;;8.57;2.43;;;;;;;10.04;74.14;100480.47;4205947;28;20236;-69
2022/09/03 00:56:07;;;;;;;9.37;2.80;;;;;;;10.06;73.82;100481.16;4204928;28;21405;-67
2022/09/03 00:58:42;;;;;;;9.37;2.87;;;;;;;9.97;73.92;100479.34;4195368;28;20253;-67
2022/09/03 01:01:17;;;;;;;9.23;2.77;;;;;;;9.95;74.19;100484.00;4216552;28;22080;-67
2022/09/03 01:04:06;;;;;;;5.83;2.53;;;;;;;9.88;74.96;100485.50;4211206;28;21007;-66
2022/09/03 01:06:43;;;;;;;11.67;2.80;;;;;;;9.88;74.80;100488.16;4199355;28;20272;-67
2022/09/03 01:09:34;;;;;;;8.30;2.20;;;;;;;9.83;74.51;100488.59;4180112;28;26145;-67
2022/09/03 01:12:33;;;;;;;10.27;2.80;;;;;;;9.89;74.74;100487.19;4202372;28;20330;-68
2022/09/03 01:15:44;;;;;;;5.60;2.37;;;;;;;9.83;74.63;100485.94;4223330;28;20403;-67
2022/09/03 01:18:26;;;;;;;9.23;2.43;;;;;;;9.87;74.48;100486.47;4168612;28;20295;-67
2022/09/03 01:21:10;;;;;;;9.03;2.83;;;;;;;9.80;74.74;100490.69;4181041;28;20230;-69
2022/09/03 01:23:47;;;;;;;6.10;2.40;;;;;;;9.76;74.62;100486.59;4197473;28;20235;-68
2022/09/03 01:26:23;;;;;;;7.17;2.80;;;;;;;9.73;74.25;100477.94;4184341;28;20518;-67
2022/09/03 01:29:04;;;;;;;10.73;2.83;;;;;;;9.73;73.82;100483.25;4208630;28;20268;-68
2022/09/03 01:31:56;;;;;;;5.97;2.63;;;;;;;9.75;73.71;100482.28;4206929;28;20935;-68
2022/09/03 01:34:40;;;;;;;7.13;2.30;;;;;;;9.63;74.69;100477.09;4208864;28;20243;-66
2022/09/03 01:37:14;;;;;;;14.80;2.67;;;;;;;9.68;74.22;100482.00;4179509;28;20292;-66
2022/09/03 01:39:51;;;;;;;6.83;2.70;;;;;;;9.72;73.49;100480.75;4188090;28;20460;-69
2022/09/03 01:42:53;;;;;;;6.13;2.47;;;;;;;9.67;74.09;100473.19;4187554;28;20892;-68
2022/09/03 01:45:32;;;;;;;9.47;3.43;;;;;;;9.65;74.04;100484.94;4188049;28;20292;-69
2022/09/03 01:48:18;;;;;;;11.23;3.00;;;;;;;9.64;74.00;100478.75;4181201;28;20251;-68
2022/09/03 01:50:58;;;;;;;7.07;2.60;;;;;;;9.61;73.96;100483.53;4173077;28;20258;-66
2022/09/03 01:53:47;;;;;;;5.23;2.37;;;;;;;9.66;73.83;100474.16;4174675;28;25896;-69
2022/09/03 01:56:19;;;;;;;10.20;2.90;;;;;;;9.49;74.52;100472.19;4176301;28;20302;-67
2022/09/03 01:58:59;;;;;;;6.57;2.87;;;;;;;9.53;74.73;100478.91;4181955;28;20374;-67
2022/09/03 02:01:32;;;;;;;12.40;3.00;;;;;;;9.43;75.05;100470.06;4160905;28;25739;-68
2022/09/03 02:03:59;;;;;;;8.20;2.70;;;;;;;9.39;74.80;100466.00;4168553;28;21715;-68
2022/09/03 02:06:28;;;;;;;8.37;2.73;;;;;;;9.46;74.45;100459.19;4189705;28;20297;-70
2022/09/03 02:08:55;;;;;;;9.73;3.00;;;;;;;9.35;75.05;100467.25;4183715;28;21728;-66
2022/09/03 02:11:22;;;;;;;7.83;2.70;;;;;;;9.42;75.18;100473.72;4179616;28;22427;-68
2022/09/03 02:13:52;;;;;;;8.57;2.80;;;;;;;9.45;74.53;100466.28;4186256;28;21108;-68
2022/09/03 02:16:21;;;;;;;8.37;2.73;;;;;;;9.31;75.10;100461.38;4180566;28;20522;-66
2022/09/03 02:18:51;;;;;;;10.23;2.73;;;;;;;9.22;75.67;100460.38;4178114;28;20245;-67
2022/09/03 02:21:19;;;;;;;4.73;2.60;;;;;;;9.33;75.17;100461.25;4184047;28;21099;-66
2022/09/03 02:23:47;;;;;;;5.87;2.53;;;;;;;9.29;74.79;100450.91;4181827;28;20237;-66
2022/09/03 02:26:16;;;;;;;9.80;2.63;;;;;;;9.33;75.01;100454.13;4187699;28;21663;-67
2022/09/03 02:28:43;;;;;;;5.70;2.90;;;;;;;9.26;75.45;100458.28;4183651;28;20768;-68
2022/09/03 02:31:10;;;;;;;7.53;2.50;;;;;;;9.21;75.48;100461.34;4180045;28;21163;-68
2022/09/03 02:33:39;;;;;;;5.67;2.47;;;;;;;9.28;75.42;100461.66;4177471;28;20266;-67
2022/09/03 02:36:09;;;;;;;6.53;2.30;;;;;;;9.29;75.06;100458.00;4177243;28;20358;-67
2022/09/03 02:38:36;;;;;;;8.17;2.93;;;;;;;9.30;75.77;100454.41;4189847;28;20315;-68
2022/09/03 02:41:03;;;;;;;7.20;2.83;;;;;;;9.09;75.85;100455.31;4188843;28;21653;-67
2022/09/03 02:43:34;;;;;;;8.07;2.40;;;;;;;9.20;75.95;100458.81;4197630;28;20242;-70
2022/09/03 02:46:03;;;;;;;11.00;3.37;;;;;;;9.16;75.97;100463.56;4197704;28;20277;-69
2022/09/03 02:48:29;;;;;;;5.73;2.77;;;;;;;9.03;75.99;100455.84;4181394;28;20245;-67
2022/09/03 02:50:57;;;;;;;8.73;2.70;;;;;;;9.03;76.07;100465.63;4184694;28;20233;-71
2022/09/03 02:53:24;;;;;;;12.83;2.80;;;;;;;9.03;76.14;100452.34;4187918;28;20338;-67
2022/09/03 02:55:52;;;;;;;7.53;3.03;;;;;;;9.01;76.42;100457.81;4188537;28;20388;-67
2022/09/03 02:58:19;;;;;;;7.10;2.40;;;;;;;9.04;76.03;100454.88;4174965;28;20244;-69
2022/09/03 03:00:48;;;;;;;7.77;2.73;;;;;;;9.00;76.14;100450.81;4181935;28;20237;-67
2022/09/03 03:03:14;;;;;;;8.87;2.40;;;;;;;9.02;76.33;100451.50;4203086;28;21051;-68
2022/09/03 03:05:47;;;;;;;5.00;2.20;;;;;;;8.99;76.39;100450.94;4184392;28;20241;-68
2022/09/03 03:08:15;;;;;;;14.17;2.80;;;;;;;9.02;76.53;100456.00;4180951;28;20734;-66
2022/09/03 03:10:45;;;;;;;10.33;2.70;;;;;;;8.97;76.88;100453.75;4185226;28;20335;-69
2022/09/03 03:13:13;;;;;;;8.50;3.10;;;;;;;9.04;77.00;100451.38;4191781;28;20260;-66
2022/09/03 03:15:40;;;;;;;6.50;2.47;;;;;;;8.96;76.84;100452.03;4190121;28;20241;-67
2022/09/03 03:18:06;;;;;;;6.33;2.77;;;;;;;8.95;76.96;100457.50;4181614;28;20278;-68
2022/09/03 03:20:33;;;;;;;10.80;2.50;;;;;;;8.94;76.96;100461.13;4184340;28;20246;-68
2022/09/03 03:23:04;;;;;;;8.80;2.57;;;;;;;8.91;77.05;100458.72;4181831;28;20248;-69
2022/09/03 03:25:35;;;;;;;8.73;2.60;;;;;;;8.92;77.48;100455.09;4187604;28;20284;-66
2022/09/03 03:28:03;;;;;;;8.57;2.90;;;;;;;8.95;77.21;100457.50;4181970;28;20346;-66
2022/09/03 03:30:30;;;;;;;6.30;2.50;;;;;;;8.88;77.62;100457.19;4181776;28;20228;-69
2022/09/03 03:32:57;;;;;;;6.37;2.83;;;;;;;8.96;77.60;100464.47;4183188;28;20241;-67
2022/09/03 03:35:24;;;;;;;7.83;2.77;;;;;;;8.94;77.25;100469.06;4183897;28;20331;-67
2022/09/03 03:37:50;;;;;;;5.57;2.60;;;;;;;8.81;78.21;100464.84;4206072;28;20232;-66
2022/09/03 03:40:17;;;;;;;8.70;2.53;;;;;;;8.83;78.10;100476.16;4209732;28;20631;-67
2022/09/03 03:42:43;;;;;;;8.83;2.60;;;;;;;8.84;78.22;100474.34;4178388;28;20342;-68
2022/09/03 03:45:10;;;;;;;13.70;3.27;;;;;;;8.86;77.77;100469.75;4208193;28;20315;-66
2022/09/03 03:47:37;;;;;;;4.80;2.20;;;;;;;8.76;78.52;100477.66;4203337;28;20248;-69
2022/09/03 03:50:04;;;;;;;9.80;2.53;;;;;;;8.70;78.73;100470.22;4194451;28;21058;-69
2022/09/03 03:52:31;;;;;;;9.03;2.67;;;;;;;8.67;78.89;100481.13;4213930;28;20236;-69
2022/09/03 03:54:57;;;;;;;8.53;3.10;;;;;;;8.52;80.04;100479.75;4207879;28;20229;-66
2022/09/03 03:57:24;;;;;;;8.57;2.77;;;;;;;8.49;80.58;100477.38;4205706;28;21267;-68
2022/09/03 03:59:50;;;;;;;11.60;3.20;;;;;;;8.36;81.21;100475.75;4189511;28;21590;-68
2022/09/03 04:02:17;;;;;;;9.77;2.30;;;;;;;8.37;81.20;100477.41;4206123;28;20267;-69
2022/09/03 04:04:44;;;;;;;6.37;2.60;;;;;;;8.47;80.89;100476.66;4214513;28;21053;-68
2022/09/03 04:07:10;;;;;;;10.30;3.00;;;;;;;8.45;81.38;100485.59;4193447;28;20291;-69
2022/09/03 04:09:37;;;;;;;5.47;2.40;;;;;;;8.52;81.06;100490.38;4187079;28;20611;-68
2022/09/03 04:12:07;;;;;;;10.20;2.50;;;;;;;8.37;81.56;100477.41;4207821;28;20274;-67
2022/09/03 04:14:37;;;;;;;11.20;3.20;;;;;;;8.37;81.58;100482.72;4263905;28;20616;-68
2022/09/03 04:17:03;;;;;;;6.77;2.73;;;;;;;8.51;81.13;100478.09;4217901;28;20600;-66
2022/09/03 04:19:30;;;;;;;9.47;2.80;;;;;;;8.52;81.10;100485.06;4239434;28;20237;-68
2022/09/03 04:21:57;;;;;;;6.03;2.50;;;;;;;8.62;80.57;100488.63;4238515;28;22994;-69
2022/09/03 04:24:24;;;;;;;8.47;2.77;;;;;;;8.62;80.03;100492.13;4232643;28;22270;-67
2022/09/03 04:26:52;;;;;;;9.40;2.83;;;;;;;8.62;80.00;100492.13;4216022;28;20231;-68
2022/09/03 04:29:20;;;;;;;7.60;2.63;;;;;;;8.55;80.75;100495.44;4248071;28;20337;-67
2022/09/03 04:34:33;;;;;;;7.80;2.70;;;;;;;8.70;79.64;100493.28;4215669;28;21852;-66
2022/09/03 04:36:59;;;;;;;8.90;2.87;;;;;;;8.68;79.72;100490.72;4231220;28;20892;-68
2022/09/03 04:39:26;;;;;;;9.53;3.23;;;;;;;8.79;78.97;100490.66;4223675;28;20368;-66
2022/09/03 04:41:53;;;;;;;10.87;2.67;;;;;;;8.82;78.93;100498.34;4228591;28;20628;-67
2022/09/03 04:44:20;;;;;;;7.03;2.80;;;;;;;8.94;78.77;100485.00;4210614;28;20240;-68
2022/09/03 04:46:47;;;;;;;6.17;2.40;;;;;;;9.00;78.17;100489.78;4208150;28;20251;-69
2022/09/03 04:49:14;;;;;;;6.83;2.40;;;;;;;8.99;78.00;100493.41;4225752;28;21619;-69
2022/09/03 04:51:40;;;;;;;5.27;2.80;;;;;;;9.09;78.30;100494.28;4204397;28;21332;-66
2022/09/03 04:54:09;;;;;;;6.73;2.33;;;;;;;9.03;77.59;100498.31;4213422;28;20608;-66
2022/09/03 04:56:35;;;;;;;8.37;2.93;;;;;;;9.04;77.34;100496.50;4206348;28;21785;-67
2022/09/03 04:59:07;;;;;;;7.17;2.77;;;;;;;9.03;77.62;100505.44;4203920;28;21172;-69
2022/09/03 05:01:36;;;;;;;7.17;3.00;;;;;;;9.09;77.65;100505.75;4193986;28;22285;-68
2022/09/03 05:04:03;;;;;;;8.20;2.83;;;;;;;9.15;77.18;100509.66;4200910;28;20236;-67
2022/09/03 05:06:31;;;;;;;7.70;3.10;;;;;;;9.25;76.93;100510.56;4207629;28;20381;-67
2022/09/03 05:08:58;;;;;;;9.80;2.80;;;;;;;9.25;77.45;100513.22;4203978;28;20232;-67
2022/09/03 05:11:26;;;;;;;5.20;2.60;;;;;;;9.35;76.94;100515.06;4199927;28;22331;-66
2022/09/03 05:13:54;;;;;;;7.67;2.70;;;;;;;9.44;76.20;100514.25;4208604;28;21161;-67
2022/09/03 05:16:23;;;;;;;7.80;3.13;;;;;;;9.58;75.44;100524.50;4218787;28;20260;-68
2022/09/03 05:18:54;;;;;;;10.13;3.00;;;;;;;9.66;75.63;100523.81;4210293;28;22495;-67
2022/09/03 05:21:21;;;;;;;6.03;2.57;;;;;;;9.70;75.34;100526.06;4220731;28;20333;-69
2022/09/03 05:23:51;;;;;;;5.93;2.57;;;;;;;9.78;74.75;100516.56;4216068;28;20334;-68
2022/09/03 05:26:24;;;;;;;7.83;2.50;;;;;;;9.96;73.42;100530.00;4206988;28;23668;-69
2022/09/03 05:28:55;;;;;;;8.60;2.57;;;;;;;9.97;73.32;100531.69;4206413;28;20979;-68
2022/09/03 05:31:25;;;;;;;7.20;2.50;;;;;;;10.03;73.34;100525.81;4226832;28;20353;-69
2022/09/03 05:33:54;;;;;;;6.43;2.70;;;;;;;10.13;72.80;100529.31;4212170;28;20954;-69
2022/09/03 05:36:22;;;;;;;6.53;2.47;;;;;;;10.31;72.28;100532.97;4187322;28;20240;-68
2022/09/03 05:38:49;;;;;;;9.33;2.67;;;;;;;10.38;71.69;100532.44;4212330;28;20273;-68
2022/09/03 05:41:17;;;;;;;7.07;2.70;;;;;;;10.47;71.28;100535.06;4215383;28;21061;-71
2022/09/03 05:43:50;;;;;;;13.17;2.50;;;;;;;10.52;71.08;100527.50;4210022;28;20245;-69
2022/09/03 05:46:17;;;;;;;6.57;2.60;;;;;;;10.60;70.17;100523.28;4215206;28;21092;-71
2022/09/03 05:48:43;;;;;;;6.27;2.13;;;;;;;10.82;69.70;100533.59;4230448;28;22236;-71
2022/09/03 05:51:15;;;;;;;9.13;2.87;;;;;;;10.82;69.26;100533.59;4205158;28;21185;-68
2022/09/03 05:53:44;;;;;;;7.87;2.20;;;;;;;11.01;68.61;100521.22;4247373;28;22365;-69
2022/09/03 05:56:17;;;;;;;8.73;2.53;;;;;;;11.16;67.82;100525.06;4231279;28;20243;-66
2022/09/03 05:58:46;;;;;;;8.07;2.43;;;;;;;11.30;67.43;100521.09;4204645;28;21127;-69
2022/09/03 06:01:18;;;;;;;9.60;2.80;;;;;;;11.39;67.91;100520.22;4223359;28;21396;-70
2022/09/03 06:03:52;;;;;;;7.37;2.47;;;;;;;11.49;66.70;100520.16;4214701;28;20241;-70
2022/09/03 06:06:24;;;;;;;11.13;2.60;;;;;;;11.50;66.47;100524.50;4235009;28;22097;-69
2022/09/03 06:08:52;;;;;;;5.97;2.20;;;;;;;11.71;66.57;100529.56;4220180;28;24887;-69
2022/09/03 06:11:20;;;;;;;8.03;2.20;;;;;;;11.84;65.98;100532.69;4207322;28;23773;-69
2022/09/03 06:13:46;;;;;;;5.33;2.60;;;;;;;11.97;64.98;100535.03;4209949;28;22117;-70
2022/09/03 06:16:13;;;;;;;7.03;2.20;;;;;;;12.15;63.61;100533.22;4234924;28;25490;-69
2022/09/03 06:18:39;;;;;;;7.30;3.07;;;;;;;12.31;64.03;100539.69;4210069;28;20267;-68
2022/09/03 06:21:06;;;;;;;11.13;3.00;;;;;;;12.47;62.88;100531.81;4207670;28;20327;-69
2022/09/03 06:23:34;;;;;;;7.80;2.20;;;;;;;12.62;61.73;100532.94;4205003;28;20337;-67
2022/09/03 06:26:09;;;;;;;6.07;2.20;;;;;;;12.76;61.46;100533.34;4203089;28;23079;-68
2022/09/03 06:28:38;;;;;;;9.07;2.07;;;;;;;13.00;60.09;100536.19;4200853;28;20233;-71
2022/09/03 06:31:07;;;;;;;6.93;1.97;;;;;;;13.11;59.18;100537.75;4215761;28;20359;-71
2022/09/03 06:33:35;;;;;;;8.70;2.10;;;;;;;13.26;58.44;100540.66;4232283;28;22167;-69
2022/09/03 06:36:04;;;;;;;8.83;2.40;;;;;;;13.43;58.13;100538.91;4244724;28;20421;-68
2022/09/03 06:38:35;;;;;;;4.10;2.00;;;;;;;13.59;57.72;100548.84;4238880;28;20245;-69
2022/09/03 06:41:05;;;;;;;9.73;2.30;;;;;;;13.67;58.04;100548.84;4202847;28;20247;-69
2022/09/03 06:43:37;;;;;;;8.77;2.27;;;;;;;13.83;57.96;100551.56;4222013;28;20236;-73
2022/09/03 06:46:06;;;;;;;12.63;2.47;;;;;;;14.00;56.88;100552.47;4218091;28;21287;-70
2022/09/03 06:48:34;;;;;;;7.00;2.10;;;;;;;14.17;55.83;100553.31;4233223;28;21350;-70
2022/09/03 06:51:02;;;;;;;11.53;2.40;;;;;;;14.42;54.54;100550.66;4229813;28;20241;-71
2022/09/03 06:53:31;;;;;;;15.03;2.30;;;;;;;15.12;51.49;100547.41;4240648;28;20242;-75
2022/09/03 06:56:00;;;;;;;12.60;2.33;;;;;;;17.15;45.54;100567.75;4254018;28;20298;-73
2022/09/03 06:58:31;;;;;;;11.20;2.23;;;;;;;20.47;37.61;100587.66;4262369;28;20236;-62
2022/09/03 07:01:05;;;;;;;11.20;2.43;;;;;;;22.96;32.36;100593.63;4262444;28;23641;-69
2022/09/03 07:03:34;;;;;;;10.73;2.60;;;;;;;24.38;29.21;100600.75;4245751;28;20230;-70
2022/09/03 07:06:04;;;;;;;9.03;2.30;;;;;;;25.91;26.14;100619.88;4347727;28;20279;-70
2022/09/03 07:08:33;;;;;;;5.73;2.73;;;;;;;28.08;24.22;100614.84;4411611;28;20255;-73
2022/09/03 07:11:07;;;;;;;10.47;2.93;;;;;;;29.00;22.61;100621.97;4310015;28;25350;-72
2022/09/03 07:13:35;;;;;;;9.20;2.27;;;;;;;30.08;20.85;100626.13;4267532;28;20233;-73
2022/09/03 07:16:11;;;;;;;7.10;2.22;;;;;;;31.55;18.79;100629.19;4334826;28;23015;-75
2022/09/03 07:18:38;;;;;;;5.50;2.42;;;;;;;32.59;17.26;100633.06;4256561;28;20621;-78
2022/09/03 07:21:10;;;;;;;5.93;2.60;;;;;;;33.44;16.21;100631.75;4238587;28;20228;-74
2022/09/03 07:23:38;;;;;;;6.10;2.42;;;;;;;32.48;16.88;100640.56;4212802;28;20236;-73
2022/09/03 07:26:15;;;;;;;12.00;2.90;;;;;;;33.24;16.49;100635.53;4264375;28;20471;-71
2022/09/03 07:28:44;;;;;;;6.80;2.63;;;;;;;33.77;15.16;100641.03;4315017;28;20234;-74
2022/09/03 07:31:21;;;;;;;8.60;2.58;;;;;;;34.55;14.56;100651.81;4211881;28;20233;-72
2022/09/03 07:33:48;;;;;;;7.55;2.35;;;;;;;36.09;13.95;100658.94;4262668;28;21290;-74
2022/09/03 07:36:16;;;;;;;8.88;2.42;;;;;;;35.39;13.64;100645.44;4245021;28;20466;-73
2022/09/03 07:38:44;;;;;;;6.95;2.60;;;;;;;33.72;15.08;100643.84;4234573;28;20247;-74
2022/09/03 07:41:13;;;;;;;5.50;2.30;;;;;;;33.42;14.61;100639.50;4244019;28;20785;-74
2022/09/03 07:43:54;;;;;;;6.13;2.40;;;;;;;32.26;15.30;100634.66;4297654;28;20229;-74
2022/09/03 07:46:22;;;;;;;9.00;2.50;;;;;;;33.20;14.74;100638.06;4194674;28;23191;-74
2022/09/03 07:48:53;;;;;;;9.70;2.80;;;;;;;33.40;15.10;100633.44;4187877;28;20229;-75
2022/09/03 07:51:25;;;;;;;7.88;2.45;;;;;;;32.86;14.95;100632.56;4197567;28;20232;-71
2022/09/03 07:54:04;;;;;;;8.25;2.20;;;;;;;32.83;15.35;100629.56;4205515;28;21651;-73
2022/09/03 07:56:31;;;;;;;11.43;2.83;;;;;;;33.91;14.77;100638.34;4205422;28;20360;-72
2022/09/03 07:58:58;;;;;;;8.02;2.20;;;;;;;33.98;13.97;100647.09;4240951;28;21180;-73
2022/09/03 08:01:32;;;;;;;11.68;2.20;;;;;;;34.66;12.99;100645.03;4232191;28;22064;-73
2022/09/03 08:04:09;;;;;;;11.68;2.30;;;;;;;34.65;13.83;100648.91;4333868;28;20231;-76
2022/09/03 08:06:37;;;;;;;10.63;2.65;;;;;;;35.45;12.73;100656.09;4299636;28;20451;-76
2022/09/03 08:09:07;;;;;;;9.20;2.20;;;;;;;34.76;12.43;100652.34;4264032;28;20333;-82
2022/09/03 08:11:39;;;;;;;10.63;2.30;;;;;;;33.66;13.25;100646.97;4369797;28;20884;-87
2022/09/03 08:14:09;;;;;;;6.35;2.13;;;;;;;31.77;14.89;100633.50;4263373;28;20858;-75
2022/09/03 08:16:41;;;;;;;6.28;1.92;;;;;;;29.80;17.08;100615.63;4267318;28;20466;-82
2022/09/03 08:19:09;;;;;;;5.72;2.03;;;;;;;27.42;19.47;100592.94;4316246;28;25583;-79
2022/09/03 08:21:36;;;;;;;6.93;2.20;;;;;;;26.33;20.27;100590.38;4234397;28;25761;-81
2022/09/03 08:24:03;;;;;;;10.38;1.90;;;;;;;25.62;20.95;100595.28;4224615;28;21118;-76
2022/09/03 08:26:33;;;;;;;10.02;1.98;;;;;;;25.33;21.30;100586.19;4230894;28;20357;-80
2022/09/03 08:29:01;;;;;;;5.90;1.90;;;;;;;25.21;21.04;100594.38;4251754;28;20225;-76
2022/09/03 08:31:28;;;;;;;8.07;2.10;;;;;;;25.10;21.52;100589.75;4230968;28;20936;-46
2022/09/03 08:33:57;;;;;;;3.37;1.63;;;;;;;24.57;22.50;100582.50;4190483;28;20297;-54
2022/09/03 08:36:29;;;;;;;3.93;1.93;;;;;;;24.00;22.89;100574.75;4217543;28;20969;-71
2022/09/03 08:41:30;;;;;;;4.37;1.77;;;;;;;24.39;22.79;100578.75;4315597;27;21723;-69
2022/09/03 08:43:59;;;;;;;17.13;1.97;;;;;;;24.40;22.35;100572.25;4294664;28;23037;-54
2022/09/03 08:47:04;;;;;;;6.00;1.90;;;;;;;23.98;22.61;100564.09;4239673;28;21317;-57
2022/09/03 08:49:57;;;;;;;9.10;2.00;;;;;;;23.84;23.50;100562.63;4272256;28;20234;-73
2022/09/03 08:52:39;;;;;;;5.67;2.20;;;;;;;23.11;24.12;100564.28;4254164;28;21576;-67
2022/09/03 08:55:23;;;;;;;3.00;1.90;;;;;;;22.30;24.58;100559.72;4297840;28;20224;-65
2022/09/03 08:58:04;;;;;;;14.90;2.07;;;;;;;21.87;25.39;100547.66;4271495;28;20243;-65
2022/09/03 09:00:49;;;;;;;8.50;2.13;;;;;;;21.93;24.97;100549.47;4276224;28;23102;-64
2022/09/03 09:03:35;;;;;;;3.40;1.80;;;;;;;21.21;26.10;100543.31;4267722;28;20673;-66
2022/09/03 09:06:20;;;;;;;5.17;2.17;;;;;;;21.50;26.11;100536.56;4267324;28;20232;-66
2022/09/03 09:08:49;;;;;;;5.67;2.13;;;;;;;21.42;26.41;100544.94;4251394;28;22302;-64
2022/09/03 09:11:26;;;;;;;6.17;1.50;;;;;;;21.48;26.27;100544.06;4263571;28;20265;-65
2022/09/03 09:13:58;;;;;;;3.10;1.87;;;;;;;21.62;25.91;100544.03;4241549;28;20230;-65
2022/09/03 09:16:39;;;;;;;2.80;1.53;;;;;;;21.78;25.74;100535.41;4246036;28;20237;-66
2022/09/03 09:19:19;;;;;;;7.07;1.23;;;;;;;21.81;25.15;100532.25;4224890;28;21268;-67
2022/09/03 09:21:51;;;;;;;3.73;1.30;;;;;;;21.99;25.28;100538.84;4242085;28;21655;-65
2022/09/03 09:24:23;;;;;;;5.37;1.17;;;;;;;21.66;25.51;100535.25;4218492;28;20313;-64
2022/09/03 09:26:56;;;;;;;6.67;1.40;;;;;;;21.47;26.67;100531.59;4238707;28;20247;-67
2022/09/03 09:29:29;;;;;;;3.27;1.20;;;;;;;21.59;26.02;100528.22;4258342;28;20360;-67
2022/09/03 09:31:57;;;;;;;2.07;0.90;;;;;;;21.26;25.58;100540.78;4250959;28;20504;-66
2022/09/03 09:34:23;;;;;;;6.77;1.37;;;;;;;21.08;27.16;100537.91;4235885;28;21766;-68
2022/09/03 09:36:53;;;;;;;5.40;1.67;;;;;;;21.32;26.88;100533.69;4253689;28;20630;-68
2022/09/03 09:39:21;;;;;;;3.03;1.60;;;;;;;21.26;27.16;100539.97;4254284;28;20243;-68
2022/09/03 09:42:07;;;;;;;9.63;1.83;;;;;;;21.09;28.11;100531.44;4245866;28;21011;-67
2022/09/03 09:44:35;;;;;;;2.93;1.50;;;;;;;21.31;27.88;100532.03;4239491;28;21389;-69
2022/09/03 09:47:10;;;;;;;7.07;1.60;;;;;;;21.20;27.52;100535.38;4240973;28;20248;-67
2022/09/03 09:49:50;;;;;;;3.93;1.60;;;;;;;21.16;28.03;100534.16;4250605;28;20237;-69
2022/09/03 09:52:17;;;;;;;4.87;1.53;;;;;;;21.30;26.80;100524.94;4248736;28;20250;-66
2022/09/03 09:54:47;;;;;;;4.13;1.87;;;;;;;21.32;27.74;100520.16;4259863;28;26366;-68
2022/09/03 09:57:17;;;;;;;3.93;1.60;;;;;;;21.33;27.51;100523.69;4250737;28;21824;-68
2022/09/03 09:59:45;;;;;;;3.50;1.40;;;;;;;21.43;27.94;100519.50;4251045;28;22730;-71
2022/09/03 10:02:26;;;;;;;6.60;1.47;;;;;;;21.53;27.13;100523.66;4253462;28;20291;-46
2022/09/03 10:05:11;;;;;;;3.07;1.20;;;;;;;21.47;26.92;100525.34;4254140;28;21288;-46
2022/09/03 10:07:39;;;;;;;2.87;1.40;;;;;;;21.27;26.95;100531.59;4249057;28;20240;-50
2022/09/03 10:10:16;;;;;;;2.87;1.30;;;;;;;21.38;27.44;100521.19;4252525;28;22365;-47
2022/09/03 10:12:48;;;;;;;4.10;1.30;;;;;;;21.41;26.12;100518.91;4292678;28;20435;-68
2022/09/03 10:15:26;;;;;;;3.80;1.33;;;;;;;21.45;27.30;100525.56;4283421;28;20861;-69
2022/09/03 10:18:27;;;;;;;4.27;1.50;;;;;;;21.58;26.64;100526.53;4303365;28;20234;-68
2022/09/03 10:21:05;;;;;;;3.67;1.70;;;;;;;21.61;26.75;100526.09;4293211;28;20240;-68
2022/09/03 10:23:45;;;;;;;3.37;1.40;;;;;;;21.20;26.47;100517.28;4272763;28;20991;-67
2022/09/03 10:26:28;;;;;;;4.03;1.40;;;;;;;21.12;28.08;100513.97;4227763;28;20236;-70
2022/09/03 10:29:04;;;;;;;4.37;1.53;;;;;;;21.11;26.06;100518.53;4235273;28;20311;-69
2022/09/03 10:32:02;;;;;;;9.30;1.70;;;;;;;20.87;27.05;100509.25;4315962;28;20247;-68
2022/09/03 10:34:47;;;;;;;4.07;1.27;;;;;;;20.95;27.55;100505.47;4257276;28;22215;-71
2022/09/03 10:37:17;;;;;;;7.17;1.40;;;;;;;20.83;26.93;100502.56;4299644;28;20229;-70
2022/09/03 10:39:54;;;;;;;9.60;2.00;;;;;;;20.96;27.41;100505.28;4263463;28;20314;-49
2022/09/03 10:42:45;;;;;;;3.00;1.40;;;;;;;21.19;26.89;100501.22;4225751;28;21187;-51
2022/09/03 10:45:34;;;;;;;6.93;1.43;;;;;;;21.43;27.73;100497.84;4241726;28;20287;-68
2022/09/03 10:48:25;;;;;;;2.63;1.67;;;;;;;21.52;26.40;100498.44;4272438;28;20247;-67
2022/09/03 10:50:57;;;;;;;7.17;1.70;;;;;;;20.99;26.75;100488.59;4259988;28;21245;-68
2022/09/03 10:53:38;;;;;;;4.60;1.20;;;;;;;21.12;26.21;100484.19;4236296;28;23004;-69
2022/09/03 10:56:11;;;;;;;3.80;1.20;;;;;;;21.07;26.27;100492.94;4245124;28;25513;-70
2022/09/03 10:58:57;;;;;;;5.43;1.20;;;;;;;21.20;27.48;100486.69;4238725;28;20368;-68
2022/09/03 11:01:31;;;;;;;3.53;1.30;;;;;;;21.37;25.17;100493.25;4283597;28;20646;-68
2022/09/03 11:04:44;;;;;;;2.37;1.37;;;;;;;21.41;25.23;100483.69;4250907;28;20231;-69
2022/09/03 11:07:18;;;;;;;3.30;1.50;;;;;;;21.50;25.23;100479.69;4241790;28;20236;-66
2022/09/03 11:09:54;;;;;;;3.87;1.57;;;;;;;21.26;25.92;100475.81;4270975;28;22508;-67
2022/09/03 11:12:29;;;;;;;2.40;1.50;;;;;;;21.35;26.37;100484.50;4271212;28;21788;-69
2022/09/03 11:15:25;;;;;;;1.97;1.13;;;;;;;21.15;26.06;100481.06;4324587;28;20272;-67
2022/09/03 11:18:13;;;;;;;5.50;1.30;;;;;;;21.30;26.31;100476.22;4296562;28;23047;-68
2022/09/03 11:20:41;;;;;;;4.17;1.50;;;;;;;21.22;26.36;100474.59;4260744;28;20497;-66
2022/09/03 11:23:12;;;;;;;6.17;1.47;;;;;;;21.29;26.14;100475.38;4256485;28;20318;-68
2022/09/03 11:25:43;;;;;;;6.90;1.40;;;;;;;21.43;26.47;100465.38;4376245;28;21792;-68
2022/09/03 11:28:37;;;;;;;8.77;1.80;;;;;;;21.57;25.75;100465.31;4302496;28;21809;-66
2022/09/03 11:31:24;;;;;;;5.70;1.10;;;;;;;21.71;24.68;100467.72;4281764;28;21496;-69
2022/09/03 11:34:15;;;;;;;16.93;8.40;;;;;;;21.80;25.11;100462.88;4301796;28;25621;-70
2022/09/03 11:37:17;;;;;;;10.57;1.30;;;;;;;21.71;24.96;100470.44;4272335;28;21847;-68
2022/09/03 11:39:52;;;;;;;2.50;0.93;;;;;;;21.85;25.11;100471.19;4327303;28;21666;-67
2022/09/03 11:42:35;;;;;;;4.17;1.07;;;;;;;21.90;24.76;100470.53;4293174;28;21094;-66
2022/09/03 11:45:33;;;;;;;3.10;1.27;;;;;;;21.72;24.50;100463.13;4251335;28;20309;-67
2022/09/03 11:48:00;;;;;;;2.13;1.20;;;;;;;21.59;25.36;100449.69;4281293;28;20245;-69
2022/09/03 11:50:29;;;;;;;4.40;1.20;;;;;;;21.50;25.38;100455.34;4253554;28;20257;-69
2022/09/03 11:53:10;;;;;;;7.13;1.37;;;;;;;21.62;25.24;100458.19;4226983;28;20305;-69
2022/09/03 11:56:00;;;;;;;2.20;1.10;;;;;;;21.48;25.33;100449.31;4250099;28;20239;-69
2022/09/03 11:58:36;;;;;;;4.60;1.37;;;;;;;21.63;25.02;100454.44;4283083;28;20237;-68
2022/09/03 12:01:14;;;;;;;2.13;1.00;;;;;;;21.62;25.27;100447.34;4262234;28;20471;-69